Terminal Aerodrome Forecast
Issued by NWS

Home | Current Version | Previous Version | Text Only | Print | Product List | Glossary On
Versions: 1 2 3 4 5 6 7 8 9 10 11 12 13 14 15 16 17
000
FTUS44 KTSA 312300
TAFXNA
TAF
KXNA 312324Z 0100/0124 31005KT P6SM SCT250
     FM010600 VRB03KT 4SM BR BKN080
     FM010900 00000KT 2SM BR SCT015 SCT080
      TEMPO 0111/0114 1SM BR BKN008
     FM011400 15007KT 5SM BR BKN025
     FM011600 16012G20KT P6SM BKN025
     FM011900 16012G20KT P6SM SCT040 BKN250=

USA.gov is the U.S. government's official web portal to all federal, state and local government web resources and services.